Terminal Aerodrome Forecast
Issued by NWS Sioux Falls, SD

Home | Current Version | Previous Version | Graphics & Text | Print | Product List | Glossary On
Versions: 1 2 3 4 5 6 7 8 9 10 11 12 13 14 15 16 17 18 19
000
FTUS43 KFSD 271728
TAFFSD
TAF
KFSD 271728Z 2718/2818 13006KT 3SM BR BKN003
     FM272000 15009KT 6SM BR BKN006
     FM280500 15010KT P6SM BKN008=

USA.gov is the U.S. government's official web portal to all federal, state and local government web resources and services.